sensor_id;sensor_type;location;lat;lon;timestamp;P1;durP1;ratioP1;P2;durP2;ratioP2
64225;SDS011;50545;56.064;26.178;2023-04-01T00:01:49;7.53;;;3.90;;
64225;SDS011;50545;56.064;26.178;2023-04-01T00:04:16;7.40;;;4.15;;
64225;SDS011;50545;56.064;26.178;2023-04-01T00:06:44;8.35;;;3.92;;
64225;SDS011;50545;56.064;26.178;2023-04-01T00:09:11;7.60;;;4.22;;
64225;SDS011;50545;56.064;26.178;2023-04-01T00:11:39;7.13;;;3.47;;
64225;SDS011;50545;56.064;26.178;2023-04-01T00:14:06;7.25;;;3.90;;
64225;SDS011;50545;56.064;26.178;2023-04-01T00:16:34;8.18;;;4.15;;
64225;SDS011;50545;56.064;26.178;2023-04-01T00:19:01;7.15;;;3.67;;
64225;SDS011;50545;56.064;26.178;2023-04-01T00:21:29;7.68;;;4.13;;
64225;SDS011;50545;56.064;26.178;2023-04-01T00:23:56;6.40;;;3.65;;
64225;SDS011;50545;56.064;26.178;2023-04-01T00:26:24;7.50;;;3.88;;
64225;SDS011;50545;56.064;26.178;2023-04-01T00:28:51;7.72;;;4.10;;
64225;SDS011;50545;56.064;26.178;2023-04-01T00:31:18;8.75;;;4.28;;
64225;SDS011;50545;56.064;26.178;2023-04-01T00:33:46;7.82;;;4.22;;
64225;SDS011;50545;56.064;26.178;2023-04-01T00:36:14;8.40;;;4.35;;
64225;SDS011;50545;56.064;26.178;2023-04-01T00:38:44;7.70;;;3.85;;
64225;SDS011;50545;56.064;26.178;2023-04-01T00:41:13;7.78;;;4.10;;
64225;SDS011;50545;56.064;26.178;2023-04-01T00:43:42;6.80;;;4.18;;
64225;SDS011;50545;56.064;26.178;2023-04-01T00:46:11;7.95;;;4.68;;
64225;SDS011;50545;56.064;26.178;2023-04-01T00:48:39;8.88;;;4.40;;
64225;SDS011;50545;56.064;26.178;2023-04-01T00:51:20;8.27;;;4.25;;
64225;SDS011;50545;56.064;26.178;2023-04-01T00:53:52;7.50;;;4.05;;
64225;SDS011;50545;56.064;26.178;2023-04-01T00:56:25;6.30;;;3.42;;
64225;SDS011;50545;56.064;26.178;2023-04-01T00:59:17;7.78;;;4.13;;
64225;SDS011;50545;56.064;26.178;2023-04-01T01:01:48;8.13;;;4.25;;
64225;SDS011;50545;56.064;26.178;2023-04-01T01:04:25;8.00;;;3.95;;
64225;SDS011;50545;56.064;26.178;2023-04-01T01:15:37;6.13;;;3.60;;
64225;SDS011;50545;56.064;26.178;2023-04-01T01:37:44;9.07;;;4.15;;
64225;SDS011;50545;56.064;26.178;2023-04-01T01:40:13;7.90;;;3.67;;
64225;SDS011;50545;56.064;26.178;2023-04-01T01:42:44;8.30;;;3.90;;
64225;SDS011;50545;56.064;26.178;2023-04-01T01:45:16;7.60;;;3.75;;
64225;SDS011;50545;56.064;26.178;2023-04-01T01:47:47;8.98;;;4.00;;
64225;SDS011;50545;56.064;26.178;2023-04-01T01:50:17;7.65;;;3.90;;
64225;SDS011;50545;56.064;26.178;2023-04-01T01:52:46;7.43;;;3.72;;
64225;SDS011;50545;56.064;26.178;2023-04-01T01:58:17;7.28;;;3.05;;
64225;SDS011;50545;56.064;26.178;2023-04-01T02:01:11;8.10;;;3.72;;
64225;SDS011;50545;56.064;26.178;2023-04-01T02:03:42;8.57;;;4.30;;
64225;SDS011;50545;56.064;26.178;2023-04-01T02:06:13;7.05;;;4.05;;
64225;SDS011;50545;56.064;26.178;2023-04-01T02:08:56;5.53;;;2.97;;
64225;SDS011;50545;56.064;26.178;2023-04-01T02:11:47;5.03;;;2.70;;
64225;SDS011;50545;56.064;26.178;2023-04-01T02:14:25;8.48;;;4.00;;
64225;SDS011;50545;56.064;26.178;2023-04-01T02:16:57;6.90;;;3.83;;
64225;SDS011;50545;56.064;26.178;2023-04-01T02:19:36;7.25;;;3.80;;
64225;SDS011;50545;56.064;26.178;2023-04-01T02:22:13;7.75;;;3.90;;
64225;SDS011;50545;56.064;26.178;2023-04-01T02:24:44;8.82;;;3.85;;
64225;SDS011;50545;56.064;26.178;2023-04-01T02:27:12;7.72;;;3.72;;
64225;SDS011;50545;56.064;26.178;2023-04-01T02:29:40;6.97;;;3.88;;
64225;SDS011;50545;56.064;26.178;2023-04-01T02:32:07;8.10;;;3.70;;
64225;SDS011;50545;56.064;26.178;2023-04-01T02:34:36;7.03;;;3.53;;
64225;SDS011;50545;56.064;26.178;2023-04-01T02:37:04;7.40;;;3.55;;
64225;SDS011;50545;56.064;26.178;2023-04-01T02:39:31;7.95;;;4.25;;
64225;SDS011;50545;56.064;26.178;2023-04-01T02:41:59;7.30;;;3.58;;
64225;SDS011;50545;56.064;26.178;2023-04-01T02:44:27;7.20;;;3.85;;
64225;SDS011;50545;56.064;26.178;2023-04-01T02:46:54;7.68;;;4.03;;
64225;SDS011;50545;56.064;26.178;2023-04-01T02:49:21;7.68;;;3.50;;
64225;SDS011;50545;56.064;26.178;2023-04-01T02:51:48;7.70;;;4.03;;
64225;SDS011;50545;56.064;26.178;2023-04-01T02:54:16;7.15;;;3.97;;
64225;SDS011;50545;56.064;26.178;2023-04-01T02:56:43;6.50;;;3.05;;
64225;SDS011;50545;56.064;26.178;2023-04-01T02:59:10;5.75;;;3.20;;
64225;SDS011;50545;56.064;26.178;2023-04-01T03:01:38;7.55;;;3.55;;
64225;SDS011;50545;56.064;26.178;2023-04-01T03:04:05;5.93;;;3.17;;
64225;SDS011;50545;56.064;26.178;2023-04-01T03:06:33;7.13;;;3.50;;
64225;SDS011;50545;56.064;26.178;2023-04-01T03:09:00;6.30;;;3.30;;
64225;SDS011;50545;56.064;26.178;2023-04-01T03:11:27;8.10;;;3.65;;
64225;SDS011;50545;56.064;26.178;2023-04-01T03:13:54;7.25;;;2.78;;
64225;SDS011;50545;56.064;26.178;2023-04-01T03:16:22;4.95;;;2.85;;
64225;SDS011;50545;56.064;26.178;2023-04-01T03:18:49;7.88;;;3.70;;
64225;SDS011;50545;56.064;26.178;2023-04-01T03:21:20;7.40;;;3.13;;
64225;SDS011;50545;56.064;26.178;2023-04-01T03:23:48;5.32;;;3.00;;
64225;SDS011;50545;56.064;26.178;2023-04-01T03:26:16;5.50;;;2.63;;
64225;SDS011;50545;56.064;26.178;2023-04-01T03:28:43;5.75;;;3.25;;
64225;SDS011;50545;56.064;26.178;2023-04-01T03:31:10;6.80;;;3.33;;
64225;SDS011;50545;56.064;26.178;2023-04-01T03:33:38;5.35;;;2.65;;
64225;SDS011;50545;56.064;26.178;2023-04-01T03:36:05;4.95;;;2.83;;
64225;SDS011;50545;56.064;26.178;2023-04-01T03:38:36;6.35;;;2.88;;
64225;SDS011;50545;56.064;26.178;2023-04-01T03:41:03;5.05;;;2.90;;
64225;SDS011;50545;56.064;26.178;2023-04-01T03:43:30;5.63;;;2.83;;
64225;SDS011;50545;56.064;26.178;2023-04-01T03:45:58;6.18;;;2.92;;
64225;SDS011;50545;56.064;26.178;2023-04-01T03:48:26;7.63;;;3.17;;
64225;SDS011;50545;56.064;26.178;2023-04-01T03:50:53;6.28;;;3.10;;
64225;SDS011;50545;56.064;26.178;2023-04-01T03:53:20;4.03;;;2.30;;
64225;SDS011;50545;56.064;26.178;2023-04-01T03:55:47;3.92;;;2.45;;
64225;SDS011;50545;56.064;26.178;2023-04-01T03:58:14;4.55;;;2.58;;
64225;SDS011;50545;56.064;26.178;2023-04-01T04:00:42;5.20;;;2.60;;
64225;SDS011;50545;56.064;26.178;2023-04-01T04:03:09;5.65;;;3.10;;
64225;SDS011;50545;56.064;26.178;2023-04-01T04:05:37;6.60;;;2.75;;
64225;SDS011;50545;56.064;26.178;2023-04-01T04:08:04;6.78;;;2.78;;
64225;SDS011;50545;56.064;26.178;2023-04-01T04:10:31;6.10;;;3.08;;
64225;SDS011;50545;56.064;26.178;2023-04-01T04:12:58;6.47;;;2.88;;
64225;SDS011;50545;56.064;26.178;2023-04-01T04:15:26;5.18;;;3.00;;
64225;SDS011;50545;56.064;26.178;2023-04-01T04:17:53;4.95;;;2.22;;
64225;SDS011;50545;56.064;26.178;2023-04-01T04:20:20;7.82;;;3.13;;
64225;SDS011;50545;56.064;26.178;2023-04-01T04:22:47;5.25;;;2.80;;
64225;SDS011;50545;56.064;26.178;2023-04-01T04:25:14;6.15;;;2.50;;
64225;SDS011;50545;56.064;26.178;2023-04-01T04:27:42;5.75;;;2.83;;
64225;SDS011;50545;56.064;26.178;2023-04-01T04:30:09;6.25;;;2.55;;
64225;SDS011;50545;56.064;26.178;2023-04-01T04:32:37;6.00;;;2.25;;
64225;SDS011;50545;56.064;26.178;2023-04-01T04:35:04;4.55;;;2.42;;
64225;SDS011;50545;56.064;26.178;2023-04-01T04:37:33;4.18;;;2.40;;
64225;SDS011;50545;56.064;26.178;2023-04-01T04:40:00;5.05;;;2.60;;
64225;SDS011;50545;56.064;26.178;2023-04-01T04:42:27;4.55;;;2.67;;
64225;SDS011;50545;56.064;26.178;2023-04-01T04:44:54;6.32;;;2.78;;
64225;SDS011;50545;56.064;26.178;2023-04-01T04:47:22;4.68;;;2.63;;
64225;SDS011;50545;56.064;26.178;2023-04-01T04:49:49;4.32;;;2.20;;
64225;SDS011;50545;56.064;26.178;2023-04-01T04:52:16;4.43;;;2.50;;
64225;SDS011;50545;56.064;26.178;2023-04-01T04:54:43;5.13;;;3.00;;
64225;SDS011;50545;56.064;26.178;2023-04-01T04:57:10;5.15;;;2.45;;
64225;SDS011;50545;56.064;26.178;2023-04-01T04:59:38;3.60;;;2.20;;
64225;SDS011;50545;56.064;26.178;2023-04-01T05:02:05;3.90;;;2.20;;
64225;SDS011;50545;56.064;26.178;2023-04-01T05:04:34;5.43;;;2.60;;
64225;SDS011;50545;56.064;26.178;2023-04-01T05:07:03;4.47;;;2.22;;
64225;SDS011;50545;56.064;26.178;2023-04-01T05:09:30;4.45;;;2.28;;
64225;SDS011;50545;56.064;26.178;2023-04-01T05:11:58;4.22;;;2.28;;
64225;SDS011;50545;56.064;26.178;2023-04-01T05:14:25;3.42;;;1.98;;
64225;SDS011;50545;56.064;26.178;2023-04-01T05:16:53;3.88;;;2.08;;
64225;SDS011;50545;56.064;26.178;2023-04-01T05:19:21;4.70;;;2.15;;
64225;SDS011;50545;56.064;26.178;2023-04-01T05:21:48;3.90;;;2.40;;
64225;SDS011;50545;56.064;26.178;2023-04-01T05:24:15;4.85;;;2.65;;
64225;SDS011;50545;56.064;26.178;2023-04-01T05:26:43;2.63;;;1.75;;
64225;SDS011;50545;56.064;26.178;2023-04-01T05:29:10;4.18;;;2.72;;
64225;SDS011;50545;56.064;26.178;2023-04-01T05:31:37;3.83;;;2.53;;
64225;SDS011;50545;56.064;26.178;2023-04-01T05:34:05;3.47;;;2.28;;
64225;SDS011;50545;56.064;26.178;2023-04-01T05:36:32;6.65;;;3.30;;
64225;SDS011;50545;56.064;26.178;2023-04-01T05:38:59;4.07;;;2.35;;
64225;SDS011;50545;56.064;26.178;2023-04-01T05:41:26;4.65;;;2.50;;
64225;SDS011;50545;56.064;26.178;2023-04-01T05:43:54;6.07;;;3.00;;
64225;SDS011;50545;56.064;26.178;2023-04-01T05:46:21;5.55;;;3.13;;
64225;SDS011;50545;56.064;26.178;2023-04-01T05:48:48;4.18;;;2.40;;
64225;SDS011;50545;56.064;26.178;2023-04-01T05:51:16;3.47;;;2.28;;
64225;SDS011;50545;56.064;26.178;2023-04-01T05:53:43;4.78;;;2.67;;
64225;SDS011;50545;56.064;26.178;2023-04-01T05:56:11;5.20;;;2.92;;
64225;SDS011;50545;56.064;26.178;2023-04-01T05:58:38;4.78;;;2.38;;
64225;SDS011;50545;56.064;26.178;2023-04-01T06:01:07;5.10;;;2.75;;
64225;SDS011;50545;56.064;26.178;2023-04-01T06:03:41;3.17;;;2.03;;
64225;SDS011;50545;56.064;26.178;2023-04-01T06:06:14;5.78;;;2.55;;
64225;SDS011;50545;56.064;26.178;2023-04-01T06:08:46;5.75;;;2.60;;
64225;SDS011;50545;56.064;26.178;2023-04-01T06:20:01;4.78;;;2.33;;
64225;SDS011;50545;56.064;26.178;2023-04-01T06:56:25;5.07;;;2.60;;
64225;SDS011;50545;56.064;26.178;2023-04-01T07:01:49;4.45;;;2.63;;
64225;SDS011;50545;56.064;26.178;2023-04-01T07:04:20;6.18;;;2.92;;
64225;SDS011;50545;56.064;26.178;2023-04-01T07:07:00;4.65;;;2.60;;
64225;SDS011;50545;56.064;26.178;2023-04-01T07:09:31;5.60;;;3.05;;
64225;SDS011;50545;56.064;26.178;2023-04-01T07:12:10;6.15;;;2.92;;
64225;SDS011;50545;56.064;26.178;2023-04-01T07:14:45;4.40;;;2.75;;
64225;SDS011;50545;56.064;26.178;2023-04-01T07:17:23;5.63;;;2.95;;
64225;SDS011;50545;56.064;26.178;2023-04-01T07:22:58;7.60;;;3.67;;
64225;SDS011;50545;56.064;26.178;2023-04-01T07:28:05;9.55;;;4.50;;
64225;SDS011;50545;56.064;26.178;2023-04-01T07:38:44;5.85;;;3.20;;
64225;SDS011;50545;56.064;26.178;2023-04-01T07:44:10;3.92;;;2.42;;
64225;SDS011;50545;56.064;26.178;2023-04-01T07:55:24;5.25;;;2.97;;
64225;SDS011;50545;56.064;26.178;2023-04-01T08:00:44;6.35;;;3.70;;
64225;SDS011;50545;56.064;26.178;2023-04-01T08:03:23;6.18;;;3.05;;
64225;SDS011;50545;56.064;26.178;2023-04-01T08:06:03;4.97;;;2.83;;
64225;SDS011;50545;56.064;26.178;2023-04-01T08:17:08;4.25;;;2.60;;
64225;SDS011;50545;56.064;26.178;2023-04-01T08:20:23;4.10;;;2.72;;
64225;SDS011;50545;56.064;26.178;2023-04-01T08:23:03;4.57;;;2.50;;
64225;SDS011;50545;56.064;26.178;2023-04-01T08:25:34;4.05;;;2.60;;
64225;SDS011;50545;56.064;26.178;2023-04-01T08:33:14;4.45;;;2.60;;
64225;SDS011;50545;56.064;26.178;2023-04-01T08:38:33;4.72;;;3.28;;
64225;SDS011;50545;56.064;26.178;2023-04-01T08:44:04;4.50;;;2.40;;
64225;SDS011;50545;56.064;26.178;2023-04-01T08:46:45;3.92;;;2.50;;
64225;SDS011;50545;56.064;26.178;2023-04-01T08:50:01;5.13;;;3.33;;
64225;SDS011;50545;56.064;26.178;2023-04-01T08:52:36;3.88;;;2.42;;
64225;SDS011;50545;56.064;26.178;2023-04-01T09:00:46;4.90;;;2.22;;
64225;SDS011;50545;56.064;26.178;2023-04-01T09:03:41;3.55;;;2.22;;
64225;SDS011;50545;56.064;26.178;2023-04-01T09:14:47;4.03;;;2.33;;
64225;SDS011;50545;56.064;26.178;2023-04-01T09:17:45;4.78;;;2.42;;
64225;SDS011;50545;56.064;26.178;2023-04-01T09:26:49;4.22;;;2.40;;
64225;SDS011;50545;56.064;26.178;2023-04-01T09:35:22;2.88;;;2.08;;
64225;SDS011;50545;56.064;26.178;2023-04-01T09:40:18;4.07;;;2.60;;
64225;SDS011;50545;56.064;26.178;2023-04-01T09:45:48;4.05;;;2.47;;
64225;SDS011;50545;56.064;26.178;2023-04-01T09:54:20;4.55;;;2.90;;
64225;SDS011;50545;56.064;26.178;2023-04-01T09:57:01;4.07;;;2.55;;
64225;SDS011;50545;56.064;26.178;2023-04-01T10:14:01;2.55;;;1.75;;
64225;SDS011;50545;56.064;26.178;2023-04-01T10:16:57;4.65;;;2.80;;
64225;SDS011;50545;56.064;26.178;2023-04-01T10:25:52;4.43;;;2.70;;
64225;SDS011;50545;56.064;26.178;2023-04-01T10:28:34;4.30;;;2.40;;
64225;SDS011;50545;56.064;26.178;2023-04-01T10:39:45;4.10;;;2.53;;
64225;SDS011;50545;56.064;26.178;2023-04-01T10:53:32;3.85;;;2.30;;
64225;SDS011;50545;56.064;26.178;2023-04-01T11:01:27;3.92;;;2.42;;
64225;SDS011;50545;56.064;26.178;2023-04-01T11:04:15;2.53;;;1.98;;
64225;SDS011;50545;56.064;26.178;2023-04-01T11:07:16;3.33;;;2.38;;
64225;SDS011;50545;56.064;26.178;2023-04-01T11:28:30;2.60;;;2.05;;
64225;SDS011;50545;56.064;26.178;2023-04-01T11:31:33;2.80;;;2.05;;
64225;SDS011;50545;56.064;26.178;2023-04-01T11:37:24;2.22;;;1.80;;
64225;SDS011;50545;56.064;26.178;2023-04-01T11:51:38;2.50;;;1.80;;
64225;SDS011;50545;56.064;26.178;2023-04-01T11:54:53;2.75;;;1.98;;
64225;SDS011;50545;56.064;26.178;2023-04-01T12:30:39;2.40;;;1.90;;
64225;SDS011;50545;56.064;26.178;2023-04-01T12:55:43;1.45;;;1.35;;
64225;SDS011;50545;56.064;26.178;2023-04-01T13:06:37;1.63;;;1.30;;
64225;SDS011;50545;56.064;26.178;2023-04-01T13:31:05;1.42;;;1.33;;
64225;SDS011;50545;56.064;26.178;2023-04-01T13:44:23;1.45;;;1.35;;
64225;SDS011;50545;56.064;26.178;2023-04-01T14:01:53;0.77;;;0.77;;
64225;SDS011;50545;56.064;26.178;2023-04-01T14:10:50;1.50;;;1.40;;
64225;SDS011;50545;56.064;26.178;2023-04-01T14:30:27;1.70;;;1.60;;
64225;SDS011;50545;56.064;26.178;2023-04-01T14:35:55;1.45;;;1.35;;
64225;SDS011;50545;56.064;26.178;2023-04-01T14:47:11;1.50;;;1.40;;
64225;SDS011;50545;56.064;26.178;2023-04-01T14:49:46;1.73;;;1.40;;
64225;SDS011;50545;56.064;26.178;2023-04-01T14:52:33;1.80;;;1.45;;
64225;SDS011;50545;56.064;26.178;2023-04-01T14:55:19;1.75;;;1.30;;
64225;SDS011;50545;56.064;26.178;2023-04-01T14:58:13;1.98;;;1.50;;
64225;SDS011;50545;56.064;26.178;2023-04-01T15:06:45;1.30;;;1.20;;
64225;SDS011;50545;56.064;26.178;2023-04-01T15:12:03;1.63;;;1.40;;
64225;SDS011;50545;56.064;26.178;2023-04-01T15:15:02;1.15;;;1.15;;
64225;SDS011;50545;56.064;26.178;2023-04-01T15:42:41;1.35;;;1.20;;
64225;SDS011;50545;56.064;26.178;2023-04-01T16:00:21;2.88;;;1.75;;
64225;SDS011;50545;56.064;26.178;2023-04-01T16:27:55;2.45;;;1.90;;
64225;SDS011;50545;56.064;26.178;2023-04-01T16:36:35;1.48;;;1.27;;
64225;SDS011;50545;56.064;26.178;2023-04-01T16:42:16;2.30;;;1.77;;
64225;SDS011;50545;56.064;26.178;2023-04-01T16:47:40;1.85;;;1.52;;
64225;SDS011;50545;56.064;26.178;2023-04-01T16:50:59;1.98;;;1.48;;
64225;SDS011;50545;56.064;26.178;2023-04-01T16:53:35;4.75;;;2.70;;
64225;SDS011;50545;56.064;26.178;2023-04-01T16:56:24;3.15;;;2.33;;
64225;SDS011;50545;56.064;26.178;2023-04-01T17:04:48;2.83;;;1.60;;
64225;SDS011;50545;56.064;26.178;2023-04-01T17:07:32;3.72;;;2.85;;
64225;SDS011;50545;56.064;26.178;2023-04-01T17:19:05;2.35;;;1.90;;
64225;SDS011;50545;56.064;26.178;2023-04-01T17:41:09;4.65;;;3.53;;
64225;SDS011;50545;56.064;26.178;2023-04-01T17:57:46;2.20;;;1.58;;
64225;SDS011;50545;56.064;26.178;2023-04-01T18:06:32;0.95;;;0.93;;
64225;SDS011;50545;56.064;26.178;2023-04-01T18:22:43;2.50;;;1.75;;
64225;SDS011;50545;56.064;26.178;2023-04-01T18:30:55;2.85;;;1.90;;
64225;SDS011;50545;56.064;26.178;2023-04-01T18:33:44;2.10;;;1.33;;
64225;SDS011;50545;56.064;26.178;2023-04-01T18:42:06;3.22;;;2.22;;
64225;SDS011;50545;56.064;26.178;2023-04-01T18:44:50;3.70;;;2.22;;
64225;SDS011;50545;56.064;26.178;2023-04-01T18:50:19;4.22;;;2.40;;
64225;SDS011;50545;56.064;26.178;2023-04-01T18:55:49;6.35;;;2.83;;
64225;SDS011;50545;56.064;26.178;2023-04-01T19:08:54;3.22;;;2.25;;
64225;SDS011;50545;56.064;26.178;2023-04-01T19:11:37;4.03;;;2.20;;
64225;SDS011;50545;56.064;26.178;2023-04-01T19:19:41;3.35;;;2.17;;
64225;SDS011;50545;56.064;26.178;2023-04-01T19:22:47;2.72;;;1.73;;
64225;SDS011;50545;56.064;26.178;2023-04-01T19:25:47;2.60;;;1.85;;
64225;SDS011;50545;56.064;26.178;2023-04-01T19:31:38;3.60;;;2.00;;
64225;SDS011;50545;56.064;26.178;2023-04-01T19:47:50;3.03;;;1.77;;
64225;SDS011;50545;56.064;26.178;2023-04-01T19:58:56;3.78;;;2.40;;
64225;SDS011;50545;56.064;26.178;2023-04-01T20:01:41;2.00;;;1.70;;
64225;SDS011;50545;56.064;26.178;2023-04-01T20:04:33;2.53;;;1.67;;
64225;SDS011;50545;56.064;26.178;2023-04-01T20:07:09;3.83;;;2.20;;
64225;SDS011;50545;56.064;26.178;2023-04-01T20:13:04;3.05;;;1.70;;
64225;SDS011;50545;56.064;26.178;2023-04-01T20:16:00;2.75;;;1.77;;
64225;SDS011;50545;56.064;26.178;2023-04-01T20:26:42;2.10;;;1.58;;
64225;SDS011;50545;56.064;26.178;2023-04-01T20:40:23;2.47;;;1.60;;
64225;SDS011;50545;56.064;26.178;2023-04-01T20:48:31;2.28;;;1.50;;
64225;SDS011;50545;56.064;26.178;2023-04-01T20:51:06;3.45;;;1.85;;
64225;SDS011;50545;56.064;26.178;2023-04-01T20:53:43;3.10;;;1.70;;
64225;SDS011;50545;56.064;26.178;2023-04-01T21:22:55;2.97;;;1.60;;
64225;SDS011;50545;56.064;26.178;2023-04-01T21:34:42;6.65;;;3.40;;
64225;SDS011;50545;56.064;26.178;2023-04-01T21:39:52;3.08;;;2.20;;
64225;SDS011;50545;56.064;26.178;2023-04-01T21:48:09;4.05;;;2.53;;
64225;SDS011;50545;56.064;26.178;2023-04-01T21:50:54;2.90;;;2.00;;
64225;SDS011;50545;56.064;26.178;2023-04-01T21:56:43;3.63;;;2.00;;
64225;SDS011;50545;56.064;26.178;2023-04-01T22:08:27;3.33;;;2.00;;
64225;SDS011;50545;56.064;26.178;2023-04-01T22:16:37;2.53;;;1.63;;
64225;SDS011;50545;56.064;26.178;2023-04-01T22:22:29;1.90;;;1.60;;
64225;SDS011;50545;56.064;26.178;2023-04-01T22:25:31;1.67;;;1.30;;
64225;SDS011;50545;56.064;26.178;2023-04-01T22:28:03;2.50;;;1.80;;
64225;SDS011;50545;56.064;26.178;2023-04-01T22:30:51;3.00;;;2.00;;
64225;SDS011;50545;56.064;26.178;2023-04-01T22:33:39;2.83;;;1.83;;
64225;SDS011;50545;56.064;26.178;2023-04-01T22:50:33;1.83;;;1.35;;
64225;SDS011;50545;56.064;26.178;2023-04-01T22:55:49;2.47;;;1.70;;
64225;SDS011;50545;56.064;26.178;2023-04-01T22:58:26;3.38;;;1.80;;
64225;SDS011;50545;56.064;26.178;2023-04-01T23:00:59;2.45;;;1.58;;
64225;SDS011;50545;56.064;26.178;2023-04-01T23:03:34;2.20;;;1.33;;
64225;SDS011;50545;56.064;26.178;2023-04-01T23:06:11;1.75;;;1.25;;
64225;SDS011;50545;56.064;26.178;2023-04-01T23:08:48;1.98;;;1.52;;
64225;SDS011;50545;56.064;26.178;2023-04-01T23:17:04;0.90;;;0.85;;
64225;SDS011;50545;56.064;26.178;2023-04-01T23:25:26;4.40;;;2.03;;
64225;SDS011;50545;56.064;26.178;2023-04-01T23:30:59;2.75;;;1.70;;
64225;SDS011;50545;56.064;26.178;2023-04-01T23:33:29;2.15;;;1.60;;
64225;SDS011;50545;56.064;26.178;2023-04-01T23:38:39;4.35;;;2.00;;
64225;SDS011;50545;56.064;26.178;2023-04-01T23:41:09;3.50;;;1.88;;
64225;SDS011;50545;56.064;26.178;2023-04-01T23:43:52;2.65;;;1.77;;
64225;SDS011;50545;56.064;26.178;2023-04-01T23:46:23;1.75;;;1.52;;
64225;SDS011;50545;56.064;26.178;2023-04-01T23:48:51;2.50;;;1.58;;
64225;SDS011;50545;56.064;26.178;2023-04-01T23:51:24;3.42;;;1.55;;
64225;SDS011;50545;56.064;26.178;2023-04-01T23:54:38;3.75;;;1.90;;
64225;SDS011;50545;56.064;26.178;2023-04-01T23:56:51;1.63;;;1.10;;
64225;SDS011;50545;56.064;26.178;2023-04-01T23:59:28;1.80;;;1.50;;
